createdAt,value
2018-09-17T00:01:08.889Z,13.10
2018-09-17T00:03:37.065Z,13.20
2018-09-17T00:06:05.196Z,13.20
2018-09-17T00:11:01.215Z,13.00
2018-09-17T00:13:29.371Z,12.90
2018-09-17T00:15:57.486Z,13.00
2018-09-17T00:18:25.643Z,13.00
2018-09-17T00:20:53.830Z,13.00
2018-09-17T00:23:21.966Z,13.00
2018-09-17T00:25:50.078Z,13.00
2018-09-17T00:30:46.129Z,13.00
2018-09-17T00:33:14.310Z,13.00
2018-09-17T00:35:42.431Z,13.00
2018-09-17T00:38:10.845Z,12.90
2018-09-17T00:40:39.030Z,12.90
2018-09-17T00:43:07.242Z,12.90
2018-09-17T00:45:35.365Z,13.00
2018-09-17T00:48:03.502Z,12.90
2018-09-17T00:50:31.627Z,12.90
2018-09-17T00:52:59.757Z,13.00
2018-09-17T00:57:55.912Z,12.90
2018-09-17T01:02:51.942Z,12.80
2018-09-17T01:05:20.078Z,12.80
2018-09-17T01:07:48.271Z,12.80
2018-09-17T01:12:44.333Z,12.80
2018-09-17T01:15:12.475Z,12.80
2018-09-17T01:17:40.592Z,12.80
2018-09-17T01:20:08.782Z,12.70
2018-09-17T01:22:36.910Z,12.70
2018-09-17T01:25:05.079Z,12.70
2018-09-17T01:32:29.238Z,12.70
2018-09-17T01:37:25.298Z,12.70
2018-09-17T01:39:53.471Z,12.70
2018-09-17T01:42:21.617Z,12.60
2018-09-17T01:44:49.945Z,12.60
2018-09-17T01:47:18.075Z,12.60
2018-09-17T01:49:46.305Z,12.50
2018-09-17T01:52:14.441Z,12.40
2018-09-17T01:54:42.585Z,12.50
2018-09-17T01:57:10.728Z,12.50
2018-09-17T02:04:35.763Z,12.60
2018-09-17T02:07:03.981Z,12.60
2018-09-17T02:09:32.158Z,12.60
2018-09-17T02:12:00.310Z,12.60
2018-09-17T02:14:28.453Z,12.60
2018-09-17T02:16:56.601Z,12.50
2018-09-17T02:21:52.649Z,12.40
2018-09-17T02:24:20.781Z,12.40
2018-09-17T02:26:48.930Z,12.40
2018-09-17T02:29:17.068Z,12.30
2018-09-17T02:31:45.218Z,12.30
2018-09-17T02:34:13.401Z,12.30
2018-09-17T02:36:41.503Z,12.30
2018-09-17T02:39:09.637Z,12.40
2018-09-17T02:41:37.781Z,12.30
2018-09-17T02:44:05.962Z,12.30
2018-09-17T02:46:34.107Z,12.30
2018-09-17T02:49:02.265Z,12.20
2018-09-17T02:51:30.410Z,12.20
2018-09-17T02:53:58.570Z,12.20
2018-09-17T02:56:26.725Z,12.20
2018-09-17T02:58:55.162Z,12.20
2018-09-17T03:01:23.346Z,12.30
2018-09-17T03:08:47.756Z,12.30
2018-09-17T03:11:15.913Z,12.30
2018-09-17T03:13:44.069Z,12.30
2018-09-17T03:16:12.221Z,12.20
2018-09-17T03:18:56.713Z,12.10
2018-09-17T03:21:24.882Z,12.00
2018-09-17T03:28:49.773Z,11.90
2018-09-17T03:31:17.993Z,11.80
2018-09-17T03:33:46.137Z,11.80
2018-09-17T03:36:14.278Z,11.80
2018-09-17T03:38:44.459Z,11.90
2018-09-17T03:41:13.269Z,11.90
2018-09-17T03:43:42.808Z,11.90
2018-09-17T03:46:10.976Z,11.90
2018-09-17T03:48:39.972Z,11.90
2018-09-17T03:51:08.663Z,11.90
2018-09-17T05:39:58.736Z,11.70
2018-09-17T05:42:26.882Z,11.70
2018-09-17T05:44:55.157Z,11.70
2018-09-17T05:47:23.346Z,11.70
2018-09-17T05:49:51.505Z,11.80
2018-09-17T05:52:19.677Z,11.90
2018-09-17T05:54:47.836Z,12.00
2018-09-17T05:57:15.953Z,12.00
2018-09-17T05:59:44.179Z,12.10
2018-09-17T06:02:12.277Z,12.10
2018-09-17T06:04:40.421Z,12.10
2018-09-17T06:07:08.617Z,12.20
2018-09-17T06:09:36.752Z,12.30
2018-09-17T06:12:04.857Z,12.30
2018-09-17T06:14:33.029Z,12.30
2018-09-17T06:17:01.251Z,12.40
2018-09-17T06:19:29.443Z,12.50
2018-09-17T06:21:57.622Z,12.50
2018-09-17T06:24:25.937Z,12.60
2018-09-17T06:26:54.094Z,12.60
2018-09-17T06:29:22.242Z,12.60
2018-09-17T06:31:50.405Z,12.80
2018-09-17T06:34:18.538Z,12.80
2018-09-17T06:36:46.698Z,12.80
2018-09-17T06:39:14.870Z,12.90
2018-09-17T06:41:43.029Z,13.00
2018-09-17T06:44:11.115Z,13.10
2018-09-17T06:46:39.268Z,13.30
2018-09-17T06:49:07.522Z,13.30
2018-09-17T06:51:35.661Z,13.40
2018-09-17T06:54:03.807Z,13.40
2018-09-17T06:59:00.977Z,13.60
2018-09-17T07:01:29.127Z,13.80
2018-09-17T07:03:57.253Z,13.80
2018-09-17T07:06:25.407Z,13.90
2018-09-17T07:08:53.534Z,14.00
2018-09-17T07:11:21.745Z,14.10
2018-09-17T07:13:49.880Z,14.10
2018-09-17T07:16:18.041Z,14.20
2018-09-17T07:18:46.179Z,14.30
2018-09-17T07:21:14.324Z,14.40
2018-09-17T07:23:42.482Z,14.50
2018-09-17T07:26:10.610Z,14.60
2018-09-17T07:28:38.745Z,14.70
2018-09-17T07:31:06.893Z,14.80
2018-09-17T07:33:35.041Z,14.80
2018-09-17T07:36:03.203Z,14.90
2018-09-17T07:38:31.361Z,14.90
2018-09-17T07:40:59.510Z,15.00
2018-09-17T07:43:27.647Z,15.00
2018-09-17T07:45:55.793Z,15.10
2018-09-17T07:48:23.954Z,15.20
2018-09-17T07:50:52.114Z,15.30
2018-09-17T07:53:20.283Z,15.30
2018-09-17T07:55:48.383Z,15.40
2018-09-17T07:58:16.529Z,15.50
2018-09-17T08:00:44.707Z,15.60
2018-09-17T08:03:12.851Z,15.60
2018-09-17T08:05:41.052Z,15.70
2018-09-17T08:08:09.147Z,15.80
2018-09-17T08:10:37.278Z,16.00
2018-09-17T08:13:05.715Z,16.00
2018-09-17T08:15:33.882Z,16.10
2018-09-17T08:18:02.038Z,16.10
2018-09-17T08:20:30.189Z,16.20
2018-09-17T08:22:58.329Z,16.30
2018-09-17T08:25:26.534Z,16.50
2018-09-17T08:27:55.173Z,16.50
2018-09-17T08:30:24.065Z,16.60
2018-09-17T08:32:52.899Z,16.60
2018-09-17T08:35:21.674Z,16.80
2018-09-17T08:37:49.886Z,16.90
2018-09-17T08:40:18.026Z,17.00
2018-09-17T08:42:46.191Z,17.10
2018-09-17T08:45:14.337Z,17.10
2018-09-17T08:47:42.500Z,17.30
2018-09-17T08:50:10.643Z,17.40
2018-09-17T08:52:38.862Z,17.50
2018-09-17T08:55:09.454Z,17.50
2018-09-17T08:57:40.765Z,17.60
2018-09-17T09:00:15.167Z,17.70
2018-09-17T09:02:45.101Z,17.90
2018-09-17T09:05:18.776Z,17.90
2018-09-17T09:07:52.916Z,18.20
2018-09-17T09:10:26.743Z,18.40
2018-09-17T09:12:56.425Z,18.40
2018-09-17T09:15:30.310Z,18.50
2018-09-17T09:17:58.473Z,18.70
2018-09-17T09:20:26.686Z,18.90
2018-09-17T09:25:22.745Z,19.20
2018-09-17T09:27:50.882Z,19.20
2018-09-17T09:30:19.024Z,19.40
2018-09-17T09:32:47.145Z,19.50
2018-09-17T09:35:15.273Z,19.60
2018-09-17T09:37:43.409Z,19.70
2018-09-17T09:40:12.015Z,19.80
2018-09-17T09:42:40.357Z,19.90
2018-09-17T09:45:08.505Z,20.00
2018-09-17T09:47:36.647Z,20.10
2018-09-17T09:50:04.905Z,20.20
2018-09-17T09:52:33.038Z,20.30
2018-09-17T09:55:01.308Z,20.40
2018-09-17T09:57:29.502Z,20.40
2018-09-17T09:59:57.654Z,20.40
2018-09-17T10:02:31.213Z,20.40
2018-09-17T10:04:59.385Z,20.50
2018-09-17T10:07:27.513Z,20.60
2018-09-17T10:10:01.037Z,20.80
2018-09-17T10:12:34.545Z,20.80
2018-09-17T10:15:08.106Z,21.00
2018-09-17T10:17:41.505Z,21.00
2018-09-17T10:20:09.657Z,21.10
2018-09-17T10:22:37.781Z,21.10
2018-09-17T10:25:05.941Z,21.00
2018-09-17T10:27:34.077Z,21.00
2018-09-17T10:30:02.271Z,21.00
2018-09-17T10:32:30.361Z,21.20
2018-09-17T10:34:58.538Z,21.40
2018-09-17T10:37:26.765Z,21.60
2018-09-17T10:39:55.002Z,21.80
2018-09-17T10:42:23.123Z,21.90
2018-09-17T10:44:51.369Z,22.20
2018-09-17T10:47:19.506Z,22.20
2018-09-17T10:49:47.634Z,22.40
2018-09-17T10:52:15.757Z,22.50
2018-09-17T10:54:43.888Z,22.60
2018-09-17T10:57:12.064Z,22.50
2018-09-17T10:59:40.183Z,22.30
2018-09-17T11:02:08.321Z,22.30
2018-09-17T11:04:36.481Z,22.40
2018-09-17T11:07:04.701Z,22.40
2018-09-17T11:09:32.865Z,22.50
2018-09-17T11:12:00.978Z,22.60
2018-09-17T11:14:29.113Z,22.80
2018-09-17T11:16:57.250Z,22.80
2018-09-17T11:19:25.384Z,23.00
2018-09-17T11:21:53.536Z,23.00
2018-09-17T11:24:21.678Z,23.00
2018-09-17T11:26:49.859Z,23.00
2018-09-17T11:29:18.050Z,23.00
2018-09-17T11:31:46.166Z,22.90
2018-09-17T11:34:14.309Z,22.90
2018-09-17T11:36:42.446Z,23.00
2018-09-17T11:39:11.269Z,23.10
2018-09-17T11:41:40.058Z,23.10
2018-09-17T11:44:08.197Z,23.30
2018-09-17T11:46:36.509Z,23.40
2018-09-17T11:49:04.643Z,23.50
2018-09-17T11:51:32.781Z,23.30
2018-09-17T11:54:01.002Z,23.20
2018-09-17T11:56:29.222Z,23.20
2018-09-17T11:58:57.346Z,23.20
2018-09-17T12:01:31.053Z,23.40
2018-09-17T12:04:04.561Z,23.40
2018-09-17T12:06:38.225Z,23.50
2018-09-17T12:09:08.251Z,23.60
2018-09-17T12:14:04.253Z,23.80
2018-09-17T12:19:00.293Z,23.90
2018-09-17T12:21:29.493Z,23.90
2018-09-17T12:23:57.680Z,23.90
2018-09-17T12:26:25.945Z,23.90
2018-09-17T12:28:54.118Z,23.90
2018-09-17T12:31:22.281Z,24.10
2018-09-17T12:33:50.469Z,23.90
2018-09-17T12:36:18.565Z,23.90
2018-09-17T12:38:46.807Z,24.10
2018-09-17T12:41:14.997Z,24.20
2018-09-17T12:43:43.129Z,24.10
2018-09-17T12:46:11.260Z,24.00
2018-09-17T12:48:39.407Z,24.00
2018-09-17T12:51:07.557Z,24.00
2018-09-17T12:53:35.658Z,24.10
2018-09-17T12:56:03.849Z,24.20
2018-09-17T12:58:31.981Z,24.10
2018-09-17T13:01:00.118Z,24.20
2018-09-17T13:03:28.249Z,24.20
2018-09-17T13:05:56.394Z,24.20
2018-09-17T13:08:24.538Z,24.40
2018-09-17T13:10:52.694Z,24.40
2018-09-17T13:20:50.841Z,24.60
2018-09-17T13:23:18.977Z,24.60
2018-09-17T13:25:47.122Z,24.60
2018-09-17T13:28:15.626Z,24.60
2018-09-17T13:30:43.826Z,24.70
2018-09-17T13:33:11.999Z,24.70
2018-09-17T13:38:08.097Z,24.90
2018-09-17T13:43:04.357Z,25.00
2018-09-17T13:45:32.557Z,24.90
2018-09-17T13:48:00.722Z,24.90
2018-09-17T13:52:56.759Z,24.80
2018-09-17T13:55:24.916Z,24.60
2018-09-17T13:57:53.024Z,24.50
2018-09-17T14:00:21.247Z,24.60
2018-09-17T14:02:49.389Z,24.60
2018-09-17T14:05:17.548Z,24.70
2018-09-17T14:07:45.661Z,24.80
2018-09-17T14:10:13.865Z,24.80
2018-09-17T14:12:41.935Z,24.70
2018-09-17T14:15:10.073Z,24.70
2018-09-17T14:17:38.241Z,24.60
2018-09-17T14:22:34.321Z,24.50
2018-09-17T14:25:02.498Z,24.50
2018-09-17T14:29:58.575Z,24.50
2018-09-17T14:32:32.005Z,24.50
2018-09-17T14:37:28.067Z,24.30
2018-09-17T14:39:56.190Z,24.30
2018-09-17T14:42:24.345Z,24.40
2018-09-17T14:44:52.532Z,24.30
2018-09-17T14:47:20.695Z,24.40
2018-09-17T14:49:48.838Z,24.30
2018-09-17T14:52:17.070Z,24.30
2018-09-17T14:54:45.182Z,24.40
2018-09-17T14:57:13.265Z,24.50
2018-09-17T14:59:41.401Z,24.60
2018-09-17T15:02:09.620Z,24.70
2018-09-17T15:04:37.767Z,24.70
2018-09-17T15:07:05.910Z,24.70
2018-09-17T15:09:34.057Z,24.70
2018-09-17T15:14:31.174Z,24.60
2018-09-17T15:16:59.276Z,24.60
2018-09-17T15:19:27.485Z,24.50
2018-09-17T15:21:55.616Z,24.50
2018-09-17T15:24:23.767Z,24.50
2018-09-17T15:26:51.945Z,24.50
2018-09-17T15:29:20.216Z,24.60
2018-09-17T15:39:13.388Z,25.10
2018-09-17T15:44:10.024Z,25.10
2018-09-17T15:49:06.469Z,25.20
2018-09-17T15:51:34.686Z,25.20
2018-09-17T15:54:02.825Z,25.20
2018-09-17T15:56:31.139Z,25.20
2018-09-17T15:58:59.870Z,25.10
2018-09-17T16:01:28.079Z,25.00
2018-09-17T16:03:56.646Z,25.00
2018-09-17T16:06:24.869Z,25.00
2018-09-17T16:08:53.046Z,25.00
2018-09-17T16:11:21.246Z,24.90
2018-09-17T16:13:49.407Z,24.90
2018-09-17T16:16:17.577Z,24.90
2018-09-17T16:18:45.786Z,24.80
2018-09-17T16:21:14.007Z,24.80
2018-09-17T16:23:42.142Z,24.70
2018-09-17T16:26:10.386Z,24.60
2018-09-17T16:28:38.564Z,24.60
2018-09-17T16:31:06.742Z,24.60
2018-09-17T16:33:35.685Z,24.50
2018-09-17T16:36:03.811Z,24.50
2018-09-17T16:38:31.994Z,24.40
2018-09-17T16:41:00.323Z,24.30
2018-09-17T16:43:28.637Z,24.20
2018-09-17T16:45:56.907Z,24.20
2018-09-17T16:48:25.081Z,24.10
2018-09-17T16:50:53.325Z,24.10
2018-09-17T16:53:21.561Z,24.00
2018-09-17T16:55:49.756Z,23.90
2018-09-17T16:58:17.888Z,23.90
2018-09-17T17:00:46.026Z,23.70
2018-09-17T17:03:14.197Z,23.60
2018-09-17T17:05:42.416Z,23.60
2018-09-17T17:08:10.559Z,23.50
2018-09-17T17:10:38.722Z,23.40
2018-09-17T17:13:07.004Z,23.30
2018-09-17T17:15:35.158Z,23.20
2018-09-17T17:20:31.234Z,22.80
2018-09-17T17:22:59.390Z,22.60
2018-09-17T17:25:27.527Z,22.50
2018-09-17T17:27:55.788Z,22.50
2018-09-17T17:30:23.841Z,22.10
2018-09-17T17:32:51.986Z,22.10
2018-09-17T17:35:20.137Z,22.00
2018-09-17T17:37:48.285Z,21.60
2018-09-17T17:40:16.559Z,21.40
2018-09-17T17:42:44.647Z,21.40
2018-09-17T17:45:12.885Z,21.10
2018-09-17T17:47:41.042Z,21.00
2018-09-17T17:50:09.177Z,20.70
2018-09-17T17:52:37.323Z,20.50
2018-09-17T17:55:05.777Z,20.40
2018-09-17T17:57:34.078Z,20.20
2018-09-17T18:00:02.281Z,20.10
2018-09-17T18:02:30.521Z,20.00
2018-09-17T18:04:58.649Z,19.80
2018-09-17T18:07:26.813Z,19.80
2018-09-17T18:09:54.954Z,19.50
2018-09-17T18:12:23.133Z,19.40
2018-09-17T18:14:51.387Z,19.30
2018-09-17T18:17:19.446Z,19.20
2018-09-17T18:19:47.597Z,19.10
2018-09-17T18:22:15.753Z,19.10
2018-09-17T18:24:43.929Z,19.00
2018-09-17T18:27:12.110Z,18.90
2018-09-17T18:29:40.210Z,18.70
2018-09-17T18:34:36.523Z,18.50
2018-09-17T18:37:04.681Z,18.30
2018-09-17T18:39:33.009Z,18.20
2018-09-17T18:42:01.011Z,18.10
2018-09-17T18:44:29.157Z,18.00
2018-09-17T18:46:57.323Z,17.90
2018-09-17T18:49:25.498Z,17.90
2018-09-17T18:51:53.663Z,17.80
2018-09-17T18:56:49.827Z,17.60
2018-09-17T18:59:17.923Z,17.50
2018-09-17T19:01:46.126Z,17.50
2018-09-17T19:04:14.273Z,17.50
2018-09-17T19:09:10.425Z,17.30
2018-09-17T19:11:38.629Z,17.10
2018-09-17T19:14:12.154Z,16.80
2018-09-17T19:16:45.751Z,16.60
2018-09-17T19:19:13.930Z,16.50
2018-09-17T19:21:47.674Z,16.50
2018-09-17T19:24:15.812Z,16.40
2018-09-17T19:26:43.938Z,16.30
2018-09-17T19:29:17.095Z,16.30
2018-09-17T19:31:45.346Z,16.30
2018-09-17T19:34:13.642Z,16.20
2018-09-17T19:39:15.082Z,16.10
2018-09-17T19:41:43.338Z,16.00
2018-09-17T19:44:11.581Z,15.90
2018-09-17T19:46:39.786Z,15.90
2018-09-17T19:49:07.986Z,15.80
2018-09-17T19:51:41.465Z,15.80
2018-09-17T19:54:09.855Z,15.70
2018-09-17T19:56:37.982Z,15.60
2018-09-17T19:59:11.681Z,15.50
2018-09-17T20:04:13.205Z,15.30
2018-09-17T20:06:41.385Z,15.30
2018-09-17T20:09:10.229Z,15.30
2018-09-17T20:11:38.760Z,15.30
2018-09-17T20:14:06.913Z,15.30
2018-09-17T20:16:35.065Z,15.30
2018-09-17T20:19:03.293Z,15.30
2018-09-17T20:21:31.424Z,15.30
2018-09-17T20:23:59.577Z,15.30
2018-09-17T20:26:27.751Z,15.00
2018-09-17T20:28:55.867Z,14.80
2018-09-17T20:31:23.986Z,14.60
2018-09-17T20:33:52.121Z,14.50
2018-09-17T20:36:20.245Z,14.50
2018-09-17T20:38:48.487Z,14.60
2018-09-17T20:41:16.522Z,14.60
2018-09-17T20:43:44.777Z,14.60
2018-09-17T20:48:40.958Z,14.60
2018-09-17T20:51:09.053Z,14.60
2018-09-17T20:53:37.213Z,14.60
2018-09-17T20:56:05.417Z,14.50
2018-09-17T21:01:01.627Z,14.50
2018-09-17T21:03:29.613Z,14.50
2018-09-17T21:05:57.741Z,14.50
2018-09-17T21:08:25.875Z,14.30
2018-09-17T21:10:54.012Z,14.20
2018-09-17T21:13:22.259Z,14.20
2018-09-17T21:15:50.306Z,14.20
2018-09-17T21:18:18.410Z,14.10
2018-09-17T21:20:46.541Z,14.10
2018-09-17T21:25:42.607Z,14.00
2018-09-17T21:28:10.742Z,14.00
2018-09-17T21:30:38.875Z,14.00
2018-09-17T21:33:07.075Z,14.00
2018-09-17T21:35:35.246Z,14.00
2018-09-17T21:38:03.373Z,13.90
2018-09-17T21:40:31.520Z,14.00
2018-09-17T21:42:59.820Z,14.00
2018-09-17T21:45:27.787Z,14.00
2018-09-17T21:47:55.909Z,14.00
2018-09-17T21:50:24.055Z,14.00
2018-09-17T21:55:20.111Z,14.00
2018-09-17T21:57:48.314Z,14.00
2018-09-17T22:00:16.442Z,14.00
2018-09-17T22:02:44.568Z,14.00
2018-09-17T22:07:40.597Z,14.10
2018-09-17T22:10:08.753Z,14.10
2018-09-17T22:12:36.935Z,14.00
2018-09-17T22:15:05.197Z,14.00
2018-09-17T22:17:33.425Z,13.90
2018-09-17T22:20:01.559Z,13.90
2018-09-17T22:22:29.695Z,13.90
2018-09-17T22:24:57.866Z,13.90
2018-09-17T22:27:26.018Z,13.90
2018-09-17T22:29:54.149Z,13.90
2018-09-17T22:32:22.314Z,13.90
2018-09-17T22:34:50.438Z,13.80
2018-09-17T22:37:18.602Z,13.80
2018-09-17T22:39:46.721Z,13.70
2018-09-17T22:42:14.905Z,13.70
2018-09-17T22:44:43.138Z,13.60
2018-09-17T22:47:11.304Z,13.50
2018-09-17T22:49:39.416Z,13.40
2018-09-17T22:52:07.558Z,13.40
2018-09-17T22:54:35.678Z,13.40
2018-09-17T22:57:03.809Z,13.40
2018-09-17T22:59:31.952Z,13.40
2018-09-17T23:02:00.086Z,13.40
2018-09-17T23:04:28.292Z,13.40
2018-09-17T23:06:56.421Z,13.30
2018-09-17T23:09:24.557Z,13.40
2018-09-17T23:11:52.686Z,13.40
2018-09-17T23:14:20.797Z,13.50
2018-09-17T23:16:48.921Z,13.50
2018-09-17T23:19:17.053Z,13.60
2018-09-17T23:21:45.175Z,13.60
2018-09-17T23:24:13.297Z,13.70
2018-09-17T23:31:37.265Z,13.20
2018-09-17T23:34:05.406Z,13.20
2018-09-17T23:39:01.449Z,13.20
2018-09-17T23:41:29.630Z,13.20
2018-09-17T23:43:57.817Z,13.10
2018-09-17T23:46:25.965Z,13.10
2018-09-17T23:48:54.101Z,13.20
2018-09-17T23:51:22.241Z,13.20
2018-09-17T23:53:50.404Z,13.30
2018-09-17T23:56:18.539Z,13.30
2018-09-17T23:58:46.672Z,13.30
